Time;durP1;ratioP1;P1;durP2;ratioP2;P2;SDS_P1;SDS_P2;PMS_P1;PMS_P2;Temp;Humidity;BMP_temperature;BMP_pressure;BME280_temperature;BME280_humidity;BME280_pressure;Samples;Min_cycle;Max_cycle;Signal;HPM_P1;HPM_P2
2023/12/04 00:00:51;;;;;;;13.80;13.30;;;21.00;46.30;;;;;;5042338;28;20476;-70
2023/12/04 00:03:18;;;;;;;13.60;13.10;;;21.00;46.30;;;;;;5045469;28;20491;-70
2023/12/04 00:05:45;;;;;;;13.80;13.33;;;21.00;46.20;;;;;;5040936;28;20508;-70
2023/12/04 00:08:12;;;;;;;13.30;12.90;;;21.00;46.20;;;;;;5039435;28;20473;-72
2023/12/04 00:10:39;;;;;;;13.60;13.10;;;21.00;46.30;;;;;;5040281;28;20469;-70
2023/12/04 00:13:07;;;;;;;14.03;13.50;;;21.10;46.20;;;;;;5042952;28;20487;-71
2023/12/04 00:15:34;;;;;;;13.77;13.17;;;21.10;46.20;;;;;;5047175;28;20445;-71
2023/12/04 00:18:01;;;;;;;13.70;13.20;;;21.00;46.20;;;;;;5039414;28;20441;-71
2023/12/04 00:20:28;;;;;;;13.93;13.50;;;21.00;46.30;;;;;;5039640;28;20473;-73
2023/12/04 00:22:55;;;;;;;13.60;13.20;;;21.00;46.40;;;;;;5044079;28;20488;-72
2023/12/04 00:25:22;;;;;;;13.67;13.13;;;21.00;46.40;;;;;;5042823;28;20854;-71
2023/12/04 00:27:49;;;;;;;13.63;13.13;;;21.00;46.30;;;;;;5040485;28;20440;-73
2023/12/04 00:30:17;;;;;;;13.70;13.20;;;21.00;46.30;;;;;;5041430;28;20440;-73
2023/12/04 00:32:44;;;;;;;14.07;13.60;;;21.00;46.30;;;;;;5046223;28;20499;-71
2023/12/04 00:35:11;;;;;;;14.07;13.40;;;21.00;46.30;;;;;;5046958;28;20502;-72
2023/12/04 00:37:38;;;;;;;13.93;13.43;;;21.00;46.20;;;;;;5045811;28;20472;-73
2023/12/04 00:40:07;;;;;;;13.73;13.27;;;21.00;46.20;;;;;;5042990;28;20812;-72
2023/12/04 00:42:34;;;;;;;13.30;12.90;;;21.00;46.20;;;;;;5042849;28;20472;-72
2023/12/04 00:45:00;;;;;;;13.60;13.20;;;21.00;46.30;;;;;;5047331;28;20544;-71
2023/12/04 00:47:29;;;;;;;13.03;12.63;;;20.90;46.30;;;;;;5046373;28;20472;-72
2023/12/04 00:49:56;;;;;;;14.90;14.30;;;20.90;46.30;;;;;;5043054;28;20476;-72
2023/12/04 00:52:23;;;;;;;14.50;13.70;;;20.90;46.20;;;;;;5042765;28;20489;-71
2023/12/04 00:54:49;;;;;;;14.50;14.00;;;20.90;46.20;;;;;;5050835;28;20467;-74
2023/12/04 00:57:16;;;;;;;13.70;13.30;;;21.00;46.20;;;;;;5042642;28;20470;-73
2023/12/04 00:59:43;;;;;;;15.13;14.60;;;21.00;46.20;;;;;;5043808;28;20472;-73
2023/12/04 01:02:10;;;;;;;14.60;14.07;;;20.90;46.20;;;;;;5046089;28;20490;-69
2023/12/04 01:04:41;;;;;;;14.20;13.70;;;20.90;46.20;;;;;;5050421;28;20515;-70
2023/12/04 01:07:08;;;;;;;14.17;13.70;;;20.90;46.20;;;;;;5042494;28;20471;-69
2023/12/04 01:09:35;;;;;;;13.07;12.67;;;20.90;46.10;;;;;;5042430;28;20480;-70
2023/12/04 01:12:02;;;;;;;13.60;13.20;;;20.90;46.20;;;;;;5047898;28;20975;-69
2023/12/04 01:14:29;;;;;;;12.20;11.80;;;20.90;46.20;;;;;;5045806;28;20578;-70
2023/12/04 01:16:56;;;;;;;13.30;12.80;;;20.90;46.20;;;;;;5042525;28;20464;-69
2023/12/04 01:19:23;;;;;;;13.43;12.93;;;20.90;46.20;;;;;;5042302;28;20579;-70
2023/12/04 01:21:52;;;;;;;13.67;13.17;;;20.90;46.10;;;;;;5046098;28;20468;-70
2023/12/04 01:24:19;;;;;;;14.17;13.57;;;20.90;46.10;;;;;;5045464;28;20829;-70
2023/12/04 01:26:46;;;;;;;13.10;12.70;;;20.90;46.10;;;;;;5043845;28;20875;-69
2023/12/04 01:29:13;;;;;;;13.10;12.70;;;20.90;46.00;;;;;;5042157;28;20853;-69
2023/12/04 01:31:40;;;;;;;12.63;12.23;;;20.90;46.10;;;;;;5050181;28;20479;-69
2023/12/04 01:34:07;;;;;;;14.40;13.80;;;20.90;46.10;;;;;;5041894;28;20495;-69
2023/12/04 01:36:34;;;;;;;12.90;12.50;;;20.90;46.10;;;;;;5041863;28;20491;-71
2023/12/04 01:39:03;;;;;;;13.23;12.73;;;20.90;46.70;;;;;;5050065;28;20487;-69
2023/12/04 01:41:30;;;;;;;13.93;13.37;;;20.90;46.10;;;;;;5049370;28;20818;-69
2023/12/04 01:43:57;;;;;;;12.93;12.53;;;20.90;46.00;;;;;;5060732;23;20513;-68
2023/12/04 01:46:24;;;;;;;13.80;13.30;;;20.90;46.00;;;;;;5013391;28;20477;-66
2023/12/04 01:48:51;;;;;;;13.23;12.83;;;20.90;46.10;;;;;;5013519;28;20480;-68
2023/12/04 01:51:20;;;;;;;13.53;13.13;;;20.90;46.00;;;;;;5013708;28;20476;-67
2023/12/04 01:53:48;;;;;;;13.30;12.80;;;20.90;46.00;;;;;;5013259;28;20808;-68
2023/12/04 01:56:19;;;;;;;13.03;12.63;;;20.90;46.00;;;;;;5013486;28;20783;-67
2023/12/04 01:58:46;;;;;;;13.70;13.20;;;20.90;45.90;;;;;;5013383;28;20481;-67
2023/12/04 02:01:13;;;;;;;13.27;12.87;;;20.90;45.90;;;;;;5013437;28;20496;-67
2023/12/04 02:03:42;;;;;;;13.23;12.73;;;20.90;46.10;;;;;;5012932;28;20493;-67
2023/12/04 02:06:10;;;;;;;13.67;13.17;;;20.90;46.10;;;;;;5013109;28;20509;-67
2023/12/04 02:08:37;;;;;;;14.83;14.33;;;20.90;46.00;;;;;;5013294;28;20484;-67
2023/12/04 02:11:04;;;;;;;13.30;12.90;;;20.80;45.90;;;;;;5013337;28;20473;-68
2023/12/04 02:13:33;;;;;;;13.37;12.97;;;20.90;45.90;;;;;;5012897;28;20466;-68
2023/12/04 02:16:06;;;;;;;13.53;13.13;;;20.90;46.00;;;;;;5012997;28;20467;-66
2023/12/04 02:18:34;;;;;;;14.23;13.73;;;20.80;45.90;;;;;;5013259;28;20446;-67
2023/12/04 02:21:02;;;;;;;13.33;12.83;;;20.80;45.90;;;;;;5012814;28;20845;-67
2023/12/04 02:23:29;;;;;;;14.43;13.80;;;20.80;45.90;;;;;;5012680;28;20468;-67
2023/12/04 02:26:01;;;;;;;13.47;13.07;;;20.90;45.90;;;;;;5012741;28;20502;-68
2023/12/04 02:28:33;;;;;;;13.40;12.97;;;20.80;45.90;;;;;;5013034;28;20543;-66
2023/12/04 02:31:02;;;;;;;14.17;13.57;;;20.90;46.00;;;;;;5012783;28;20473;-68
2023/12/04 02:33:30;;;;;;;14.20;13.70;;;20.80;45.90;;;;;;5012505;28;20528;-67
2023/12/04 02:35:59;;;;;;;13.47;13.07;;;20.80;45.90;;;;;;5012641;28;20484;-67
2023/12/04 02:38:27;;;;;;;13.23;12.77;;;20.80;45.90;;;;;;5012909;28;20481;-67
2023/12/04 02:40:54;;;;;;;13.87;13.37;;;20.80;45.90;;;;;;5012588;28;20473;-68
2023/12/04 02:43:22;;;;;;;13.60;13.20;;;20.90;45.80;;;;;;5011957;28;20506;-66
2023/12/04 02:45:49;;;;;;;13.13;12.73;;;20.80;45.80;;;;;;5012449;28;20908;-66
2023/12/04 02:48:16;;;;;;;13.30;12.90;;;20.80;45.80;;;;;;5012674;28;20478;-67
2023/12/04 02:50:43;;;;;;;13.57;13.07;;;20.80;45.90;;;;;;5012387;28;20477;-67
2023/12/04 02:53:10;;;;;;;13.50;13.00;;;20.80;45.90;;;;;;5011564;28;20486;-67
2023/12/04 02:55:36;;;;;;;13.60;13.20;;;20.80;45.80;;;;;;5012387;28;20482;-67
2023/12/04 02:58:03;;;;;;;12.93;12.53;;;20.80;45.80;;;;;;5012525;28;20480;-68
2023/12/04 03:00:32;;;;;;;13.27;12.80;;;20.80;45.70;;;;;;5012376;28;20477;-65
2023/12/04 03:02:59;;;;;;;13.40;13.00;;;20.80;45.80;;;;;;5012014;28;20521;-65
2023/12/04 03:05:25;;;;;;;12.97;12.47;;;20.80;45.80;;;;;;5011918;28;20498;-66
2023/12/04 03:07:52;;;;;;;13.00;12.60;;;20.80;45.80;;;;;;5012332;28;20470;-66
2023/12/04 03:10:19;;;;;;;13.57;13.07;;;20.80;45.80;;;;;;5012084;28;20949;-67
2023/12/04 03:12:46;;;;;;;13.80;13.40;;;20.80;45.80;;;;;;5011849;28;20888;-65
2023/12/04 03:15:13;;;;;;;14.33;13.70;;;20.80;45.80;;;;;;5012150;28;20489;-64
2023/12/04 03:17:41;;;;;;;13.03;12.63;;;20.80;45.80;;;;;;5012081;28;20474;-66
2023/12/04 03:20:09;;;;;;;13.10;12.70;;;20.80;45.80;;;;;;5011967;28;20481;-66
2023/12/04 03:22:37;;;;;;;13.47;12.87;;;20.80;45.80;;;;;;5011679;28;20468;-65
2023/12/04 03:25:05;;;;;;;14.57;14.07;;;20.80;45.70;;;;;;5003816;28;20505;-66
2023/12/04 03:27:32;;;;;;;14.40;13.90;;;20.80;45.60;;;;;;5011974;28;20473;-67
2023/12/04 03:29:58;;;;;;;14.00;13.50;;;20.80;45.60;;;;;;5011886;28;20481;-65
2023/12/04 03:32:25;;;;;;;14.97;14.43;;;20.80;45.60;;;;;;5011561;28;20481;-65
2023/12/04 03:34:53;;;;;;;13.60;13.10;;;20.80;45.70;;;;;;5011729;28;20862;-65
2023/12/04 03:37:20;;;;;;;14.07;13.60;;;20.80;45.70;;;;;;5011909;28;20478;-66
2023/12/04 03:39:47;;;;;;;13.37;12.97;;;20.80;45.70;;;;;;5011674;28;20477;-65
2023/12/04 03:42:14;;;;;;;13.90;13.40;;;20.80;45.70;;;;;;5011783;28;20933;-66
2023/12/04 03:44:41;;;;;;;13.67;13.27;;;20.80;45.70;;;;;;5011739;28;20909;-65
2023/12/04 03:47:08;;;;;;;14.37;13.80;;;20.80;45.70;;;;;;5011783;28;20514;-67
2023/12/04 03:49:35;;;;;;;13.50;13.00;;;20.80;45.70;;;;;;5011685;28;20477;-65
2023/12/04 03:52:03;;;;;;;13.30;12.90;;;20.80;45.70;;;;;;5011443;28;20481;-64
2023/12/04 03:54:30;;;;;;;13.77;13.30;;;20.80;45.60;;;;;;5011648;28;20500;-66
2023/12/04 03:56:57;;;;;;;13.43;13.00;;;20.80;45.60;;;;;;5011568;28;20565;-65
2023/12/04 03:59:24;;;;;;;13.20;12.80;;;20.70;45.50;;;;;;5011612;28;20473;-64
2023/12/04 04:01:51;;;;;;;13.00;12.60;;;20.80;45.60;;;;;;5011355;28;20480;-65
2023/12/04 04:04:18;;;;;;;15.43;14.93;;;20.70;45.60;;;;;;5012334;28;21014;-66
2023/12/04 04:06:44;;;;;;;13.60;13.20;;;20.80;45.50;;;;;;5015555;28;20516;-65
2023/12/04 04:09:13;;;;;;;13.70;13.23;;;20.80;45.60;;;;;;5015496;28;20481;-65
2023/12/04 04:11:39;;;;;;;13.10;12.70;;;20.80;45.60;;;;;;5015315;28;20877;-65
2023/12/04 04:14:06;;;;;;;13.40;13.00;;;20.70;45.50;;;;;;5015551;28;20511;-67
2023/12/04 04:16:33;;;;;;;14.60;14.13;;;20.80;45.50;;;;;;5015392;28;20473;-65
2023/12/04 04:19:00;;;;;;;14.00;13.60;;;20.80;45.50;;;;;;5015199;28;20476;-65
2023/12/04 04:21:27;;;;;;;13.67;13.27;;;20.80;45.60;;;;;;5015184;28;20473;-65
2023/12/04 04:23:54;;;;;;;13.70;13.30;;;20.70;45.50;;;;;;5015269;28;20470;-65
2023/12/04 04:26:23;;;;;;;13.50;13.10;;;20.70;46.10;;;;;;5015115;28;20513;-65
2023/12/04 04:28:49;;;;;;;14.20;13.70;;;20.70;45.60;;;;;;5014941;28;20474;-65
2023/12/04 04:31:16;;;;;;;13.90;13.50;;;20.70;45.60;;;;;;5014915;28;20450;-65
2023/12/04 04:33:43;;;;;;;13.63;13.23;;;20.70;45.50;;;;;;5014865;28;20492;-66
2023/12/04 04:36:10;;;;;;;14.23;13.73;;;20.70;45.60;;;;;;5014950;28;20468;-65
2023/12/04 04:38:37;;;;;;;13.70;13.20;;;20.70;45.50;;;;;;5014974;28;20478;-68
2023/12/04 04:41:04;;;;;;;13.67;13.23;;;20.70;45.40;;;;;;5014630;28;20587;-65
2023/12/04 04:43:33;;;;;;;14.67;14.17;;;20.70;45.40;;;;;;5014886;28;20497;-67
2023/12/04 04:46:00;;;;;;;13.93;13.43;;;20.70;45.40;;;;;;5014451;28;20996;-65
2023/12/04 04:48:27;;;;;;;13.83;13.33;;;20.70;45.50;;;;;;5014676;28;20866;-65
2023/12/04 04:50:53;;;;;;;15.07;14.50;;;20.70;45.40;;;;;;5014480;28;20470;-67
2023/12/04 04:53:20;;;;;;;14.50;14.00;;;20.70;45.40;;;;;;5014778;28;20497;-65
2023/12/04 04:55:47;;;;;;;14.97;14.47;;;20.80;45.40;;;;;;5014542;28;20438;-67
2023/12/04 04:58:14;;;;;;;13.77;13.27;;;20.70;45.40;;;;;;5014559;28;20473;-65
2023/12/04 05:00:43;;;;;;;14.40;13.97;;;20.70;45.50;;;;;;5014422;28;20477;-65
2023/12/04 05:03:09;;;;;;;14.50;14.00;;;20.70;45.50;;;;;;5006538;28;20466;-67
2023/12/04 05:05:36;;;;;;;14.87;14.40;;;20.80;45.50;;;;;;5014375;28;20510;-65
2023/12/04 05:08:03;;;;;;;14.50;14.10;;;20.70;45.40;;;;;;5014304;28;20474;-66
2023/12/04 05:10:30;;;;;;;15.10;14.50;;;20.80;45.50;;;;;;5014232;28;20480;-65
2023/12/04 05:12:57;;;;;;;14.37;13.90;;;20.70;45.40;;;;;;5014072;28;20496;-65
2023/12/04 05:15:24;;;;;;;15.50;15.00;;;20.80;45.50;;;;;;5013668;28;20441;-65
2023/12/04 05:17:52;;;;;;;16.13;15.53;;;20.80;45.40;;;;;;5014103;28;20477;-65
2023/12/04 05:20:19;;;;;;;15.37;14.87;;;20.80;45.30;;;;;;5014070;28;20473;-65
2023/12/04 05:22:46;;;;;;;15.77;15.27;;;20.80;45.30;;;;;;5013874;28;20490;-66
2023/12/04 05:25:13;;;;;;;15.43;14.83;;;20.80;45.30;;;;;;5013970;28;20484;-65
2023/12/04 05:27:40;;;;;;;15.10;14.60;;;20.80;45.30;;;;;;5014056;28;20474;-66
2023/12/04 05:30:08;;;;;;;16.40;15.60;;;20.80;45.30;;;;;;5013797;28;20965;-65
2023/12/04 05:32:35;;;;;;;14.77;14.37;;;20.80;45.30;;;;;;5013880;28;20474;-66
2023/12/04 05:35:03;;;;;;;15.20;14.70;;;20.90;46.10;;;;;;5013819;28;20470;-62
2023/12/04 05:37:30;;;;;;;15.07;14.60;;;20.90;45.40;;;;;;5013872;28;20442;-65
2023/12/04 05:39:57;;;;;;;14.40;14.00;;;21.00;45.20;;;;;;5013714;28;20478;-67
2023/12/04 05:42:24;;;;;;;14.50;14.10;;;21.00;45.20;;;;;;5013613;28;20548;-64
2023/12/04 05:44:55;;;;;;;14.53;14.13;;;21.10;45.30;;;;;;5013614;28;20478;-64
2023/12/04 05:47:21;;;;;;;15.10;14.60;;;21.20;45.10;;;;;;5013605;28;20565;-65
2023/12/04 05:49:48;;;;;;;15.77;14.90;;;21.30;46.00;;;;;;5012935;28;20477;-65
2023/12/04 05:52:17;;;;;;;17.43;16.80;;;21.30;45.50;;;;;;5013220;28;20462;-65
2023/12/04 05:54:44;;;;;;;16.83;16.23;;;21.30;45.20;;;;;;5013379;28;20442;-65
2023/12/04 05:57:13;;;;;;;15.53;15.03;;;21.40;45.20;;;;;;5013432;28;20465;-65
2023/12/04 05:59:41;;;;;;;16.30;15.70;;;21.40;45.20;;;;;;5013439;28;20458;-68
2023/12/04 06:02:08;;;;;;;16.33;15.70;;;21.40;45.40;;;;;;5012585;28;20988;-66
2023/12/04 06:04:35;;;;;;;14.10;13.57;;;21.50;46.10;;;;;;5013243;28;20505;-66
2023/12/04 06:07:02;;;;;;;14.77;14.03;;;21.50;45.60;;;;;;5013060;28;20474;-67
2023/12/04 06:09:36;;;;;;;14.60;14.10;;;21.50;45.30;;;;;;5013393;28;20442;-66
2023/12/04 06:12:07;;;;;;;14.53;14.13;;;21.60;45.30;;;;;;5012921;28;20496;-67
2023/12/04 06:14:35;;;;;;;14.83;14.13;;;21.60;45.30;;;;;;5013269;28;20501;-67
2023/12/04 06:17:02;;;;;;;14.67;14.17;;;21.60;45.10;;;;;;5013316;28;20481;-67
2023/12/04 06:19:29;;;;;;;15.00;14.50;;;21.60;45.30;;;;;;5013041;28;20449;-65
2023/12/04 06:21:56;;;;;;;15.20;14.40;;;21.70;45.80;;;;;;5012817;28;20485;-66
2023/12/04 06:24:24;;;;;;;15.23;14.63;;;21.70;46.30;;;;;;5013083;28;20516;-67
2023/12/04 06:26:53;;;;;;;15.20;14.60;;;21.70;46.00;;;;;;5012417;28;20624;-66
2023/12/04 06:29:21;;;;;;;16.40;15.70;;;21.70;46.00;;;;;;5012834;28;20454;-67
2023/12/04 06:31:48;;;;;;;15.57;14.53;;;21.80;45.90;;;;;;5012577;28;20505;-66
2023/12/04 06:34:16;;;;;;;15.00;14.43;;;21.80;45.80;;;;;;5012607;28;20469;-67
2023/12/04 06:36:43;;;;;;;15.00;14.47;;;21.80;46.00;;;;;;5013073;28;20470;-67
2023/12/04 06:39:12;;;;;;;15.57;14.87;;;21.80;45.60;;;;;;5012602;28;20474;-68
2023/12/04 06:41:41;;;;;;;16.17;15.57;;;21.80;45.60;;;;;;5012714;28;20442;-67
2023/12/04 06:44:11;;;;;;;15.17;14.77;;;21.80;45.70;;;;;;5012298;28;20549;-67
2023/12/04 06:46:39;;;;;;;15.27;14.67;;;21.90;45.20;;;;;;5012299;28;20481;-66
2023/12/04 06:49:07;;;;;;;18.17;17.47;;;21.90;45.10;;;;;;5012365;28;20450;-71
2023/12/04 06:51:34;;;;;;;23.17;22.23;;;21.90;45.10;;;;;;5012735;28;20477;-69
2023/12/04 06:54:02;;;;;;;22.30;21.40;;;21.90;45.00;;;;;;5012280;28;20527;-74
2023/12/04 06:56:29;;;;;;;23.40;22.13;;;22.00;45.10;;;;;;5012263;28;20478;-73
2023/12/04 06:58:56;;;;;;;24.00;22.83;;;22.00;45.00;;;;;;5012151;28;20656;-67
2023/12/04 07:01:24;;;;;;;23.83;22.50;;;22.00;45.00;;;;;;5012256;28;20512;-70
2023/12/04 07:03:51;;;;;;;24.80;23.67;;;22.00;44.90;;;;;;5012183;28;20827;-66
2023/12/04 07:06:18;;;;;;;25.13;23.70;;;22.10;44.80;;;;;;5011300;28;20539;-72
2023/12/04 07:08:45;;;;;;;24.60;23.30;;;22.00;44.70;;;;;;5012109;28;20488;-73
2023/12/04 07:11:14;;;;;;;16.40;15.60;;;22.00;44.80;;;;;;5008674;28;20486;-70
2023/12/04 07:13:42;;;;;;;15.57;14.80;;;22.10;44.80;;;;;;5007901;28;20532;-72
2023/12/04 07:16:09;;;;;;;16.20;15.50;;;22.10;44.90;;;;;;5011975;28;20438;-70
2023/12/04 07:18:37;;;;;;;16.73;15.83;;;22.10;44.80;;;;;;5011775;28;20879;-69
2023/12/04 07:21:05;;;;;;;17.37;16.00;;;22.20;45.00;;;;;;5012049;28;20484;-67
2023/12/04 07:23:32;;;;;;;15.03;14.33;;;22.20;44.90;;;;;;5011997;28;20458;-67
2023/12/04 07:25:59;;;;;;;16.93;15.93;;;22.20;44.80;;;;;;5011799;28;20474;-67
2023/12/04 07:28:27;;;;;;;15.53;14.83;;;22.20;44.60;;;;;;5011617;28;20474;-71
2023/12/04 07:30:55;;;;;;;16.13;15.40;;;22.20;44.60;;;;;;5011933;28;20534;-68
2023/12/04 07:33:22;;;;;;;15.43;14.73;;;22.20;44.50;;;;;;5011890;28;20493;-68
2023/12/04 07:35:51;;;;;;;16.13;15.40;;;22.20;44.40;;;;;;5011768;28;20975;-71
2023/12/04 07:38:18;;;;;;;15.33;14.73;;;22.20;44.40;;;;;;5011614;28;20508;-66
2023/12/04 07:40:46;;;;;;;13.97;13.37;;;22.20;44.40;;;;;;5011713;28;20488;-67
2023/12/04 07:43:14;;;;;;;14.03;13.33;;;22.30;44.50;;;;;;5038501;22;20601;-59
2023/12/04 07:45:41;;;;;;;14.53;13.97;;;22.30;44.50;;;;;;5031063;28;20835;-60
2023/12/04 07:48:08;;;;;;;14.53;13.93;;;22.30;44.50;;;;;;5030514;28;20579;-59
2023/12/04 07:50:35;;;;;;;15.70;15.10;;;22.30;44.40;;;;;;5031180;28;20480;-62
2023/12/04 07:53:03;;;;;;;16.07;14.83;;;22.30;44.40;;;;;;5029813;28;20473;-61
2023/12/04 07:55:30;;;;;;;15.07;14.47;;;22.40;44.50;;;;;;5029218;28;20828;-61
2023/12/04 07:57:57;;;;;;;14.60;14.07;;;22.40;44.40;;;;;;5027790;28;20429;-60
2023/12/04 08:00:25;;;;;;;14.40;13.90;;;22.40;44.50;;;;;;5005381;28;20484;-61
2023/12/04 08:02:52;;;;;;;15.27;14.67;;;22.40;44.80;;;;;;5011832;28;20454;-63
2023/12/04 08:05:19;;;;;;;16.37;15.67;;;22.40;44.60;;;;;;5012096;28;20479;-60
2023/12/04 08:07:46;;;;;;;14.90;14.30;;;22.40;44.70;;;;;;5011862;28;21063;-60
2023/12/04 08:10:14;;;;;;;15.70;15.07;;;22.40;44.60;;;;;;5012052;28;20446;-60
2023/12/04 08:12:41;;;;;;;15.30;14.77;;;22.40;44.50;;;;;;5011929;28;20473;-62
2023/12/04 08:15:09;;;;;;;16.17;15.27;;;22.40;44.60;;;;;;5018083;28;20472;-59
2023/12/04 08:17:36;;;;;;;15.20;14.70;;;22.40;44.50;;;;;;5017904;28;20462;-58
2023/12/04 08:20:04;;;;;;;14.27;13.77;;;22.40;44.50;;;;;;5011826;28;20481;-60
2023/12/04 08:22:31;;;;;;;16.73;16.13;;;22.40;44.50;;;;;;5025699;28;20438;-62
2023/12/04 08:24:59;;;;;;;15.57;15.07;;;22.40;44.50;;;;;;5024689;28;20873;-63
2023/12/04 08:27:27;;;;;;;16.87;16.17;;;22.40;44.50;;;;;;5024204;28;20478;-64
2023/12/04 08:29:54;;;;;;;15.10;14.40;;;22.40;44.40;;;;;;5025048;28;20473;-62
2023/12/04 08:32:22;;;;;;;15.37;14.67;;;22.40;44.40;;;;;;5023216;28;20499;-63
2023/12/04 08:34:49;;;;;;;16.77;16.07;;;22.40;44.40;;;;;;5025115;28;20465;-63
2023/12/04 08:37:15;;;;;;;16.00;15.40;;;22.40;44.40;;;;;;5021946;28;20474;-62
2023/12/04 08:39:42;;;;;;;15.17;14.60;;;22.40;44.50;;;;;;5024960;28;20974;-61
2023/12/04 08:42:09;;;;;;;15.97;15.33;;;22.40;44.50;;;;;;5022006;28;20974;-61
2023/12/04 08:44:37;;;;;;;15.93;15.33;;;22.40;44.50;;;;;;5023602;28;20954;-61
2023/12/04 08:47:06;;;;;;;15.63;15.03;;;22.40;44.50;;;;;;5022460;28;20517;-61
2023/12/04 08:49:34;;;;;;;15.60;15.10;;;22.40;44.50;;;;;;5017266;28;20893;-61
2023/12/04 08:52:01;;;;;;;15.70;15.20;;;22.50;44.50;;;;;;5014647;28;20434;-61
2023/12/04 08:54:28;;;;;;;15.90;15.20;;;22.40;44.30;;;;;;5015221;28;20561;-63
2023/12/04 08:56:55;;;;;;;16.57;15.73;;;22.50;44.50;;;;;;5014923;28;20480;-61
2023/12/04 08:59:22;;;;;;;16.03;15.53;;;22.40;44.30;;;;;;5015112;28;20452;-62
2023/12/04 09:01:50;;;;;;;15.63;14.97;;;22.40;44.30;;;;;;5014928;28;20470;-60
2023/12/04 09:04:17;;;;;;;16.10;15.40;;;22.50;44.40;;;;;;5020044;28;21054;-63
2023/12/04 09:06:44;;;;;;;15.50;15.00;;;22.50;44.20;;;;;;5015791;28;20484;-62
2023/12/04 09:09:11;;;;;;;15.30;14.80;;;22.50;44.70;;;;;;5014758;28;20477;-60
2023/12/04 09:11:41;;;;;;;15.70;15.10;;;22.50;44.60;;;;;;5013877;28;20479;-60
2023/12/04 09:14:08;;;;;;;16.03;15.40;;;22.50;44.70;;;;;;5014703;28;20890;-61
2023/12/04 09:16:35;;;;;;;15.40;14.80;;;22.50;44.70;;;;;;5015030;28;20478;-61
2023/12/04 09:19:04;;;;;;;14.97;14.50;;;22.50;44.80;;;;;;5014608;28;20477;-64
2023/12/04 09:21:31;;;;;;;16.00;15.20;;;22.50;44.70;;;;;;5014785;28;20445;-64
2023/12/04 09:23:58;;;;;;;15.00;14.30;;;22.50;44.50;;;;;;5014512;28;20555;-63
2023/12/04 09:26:29;;;;;;;15.10;14.60;;;22.60;45.20;;;;;;5018530;28;20480;-58
2023/12/04 09:28:58;;;;;;;15.37;14.73;;;22.60;44.70;;;;;;5014132;28;20957;-61
2023/12/04 09:31:31;;;;;;;14.70;14.30;;;22.60;44.20;;;;;;5014491;28;20541;-62
2023/12/04 09:34:03;;;;;;;16.50;14.60;;;22.50;43.80;;;;;;5010107;28;21034;-64
2023/12/04 09:36:42;;;;;;;14.90;14.40;;;22.40;43.40;;;;;;5014725;28;20520;-61
2023/12/04 09:39:14;;;;;;;14.93;14.30;;;22.40;44.00;;;;;;5017165;28;20453;-62
2023/12/04 09:41:42;;;;;;;15.10;14.60;;;22.50;43.70;;;;;;5012748;28;20453;-61
2023/12/04 09:44:18;;;;;;;14.70;14.20;;;22.40;43.90;;;;;;5014122;28;20466;-61
2023/12/04 09:46:46;;;;;;;14.60;14.20;;;22.50;44.30;;;;;;5013163;28;20448;-59
2023/12/04 09:49:14;;;;;;;14.87;14.33;;;22.50;43.80;;;;;;5019045;28;20484;-64
2023/12/04 09:51:42;;;;;;;15.07;14.40;;;22.50;43.80;;;;;;5017613;28;20481;-58
2023/12/04 09:54:10;;;;;;;132.13;125.57;;;22.50;43.80;;;;;;5014642;28;20494;-61
2023/12/04 09:56:38;;;;;;;139.30;133.10;;;22.50;43.70;;;;;;5016076;28;20484;-62
2023/12/04 09:59:07;;;;;;;143.63;137.30;;;22.50;43.70;;;;;;5013859;28;20956;-61
2023/12/04 10:01:36;;;;;;;124.90;119.00;;;22.50;43.70;;;;;;5013974;28;20509;-65
2023/12/04 10:04:05;;;;;;;123.97;118.20;;;22.50;43.50;;;;;;5013627;28;20497;-62
2023/12/04 10:06:33;;;;;;;125.13;119.20;;;22.50;44.00;;;;;;5013724;28;20448;-63
2023/12/04 10:09:01;;;;;;;129.80;123.70;;;22.50;43.90;;;;;;5013764;28;20477;-64
2023/12/04 10:11:29;;;;;;;134.73;128.53;;;22.40;43.40;;;;;;5017863;28;20477;-63
2023/12/04 10:13:56;;;;;;;128.80;122.77;;;22.40;40.50;;;;;;5031427;28;20457;-62
2023/12/04 10:16:36;;;;;;;128.77;122.77;;;22.30;38.00;;;;;;5015751;28;20477;-58
2023/12/04 10:19:17;;;;;;;127.60;121.70;;;22.30;38.50;;;;;;5024521;28;20463;-64
2023/12/04 10:21:44;;;;;;;129.87;123.80;;;22.30;40.00;;;;;;5013711;28;20481;-60
2023/12/04 10:24:13;;;;;;;132.80;126.70;;;22.20;40.80;;;;;;5013536;28;20486;-59
2023/12/04 10:26:51;;;;;;;131.60;125.50;;;22.20;41.10;;;;;;5013261;28;20477;-61
2023/12/04 10:29:18;;;;;;;131.13;124.90;;;22.20;41.20;;;;;;5013436;28;20933;-60
2023/12/04 10:31:45;;;;;;;128.63;122.73;;;22.20;41.20;;;;;;5021590;28;20469;-65
2023/12/04 10:34:11;;;;;;;125.30;119.30;;;22.30;41.90;;;;;;5011605;28;20921;-64
2023/12/04 10:36:39;;;;;;;126.10;120.40;;;22.30;43.10;;;;;;5013050;28;20478;-60
2023/12/04 10:39:05;;;;;;;125.37;119.33;;;22.30;44.20;;;;;;5017107;28;20466;-68
2023/12/04 10:41:34;;;;;;;131.20;124.80;;;22.30;43.40;;;;;;5013780;28;20477;-64
2023/12/04 10:44:02;;;;;;;127.90;122.10;;;22.30;43.50;;;;;;5023550;28;20496;-66
2023/12/04 10:46:29;;;;;;;129.73;123.70;;;22.30;43.40;;;;;;5020885;28;20438;-67
2023/12/04 10:48:58;;;;;;;128.00;122.00;;;22.30;43.70;;;;;;5021996;28;20569;-67
2023/12/04 10:51:27;;;;;;;130.83;124.63;;;22.40;43.30;;;;;;5019705;28;20442;-67
2023/12/04 10:53:54;;;;;;;124.87;119.10;;;22.40;43.40;;;;;;5022642;28;20461;-67
2023/12/04 10:56:30;;;;;;;123.23;117.53;;;22.40;43.40;;;;;;5018841;28;20434;-68
2023/12/04 10:59:01;;;;;;;124.30;118.53;;;22.40;43.40;;;;;;5009293;28;20469;-68
2023/12/04 11:01:29;;;;;;;122.90;117.10;;;22.40;43.60;;;;;;5012783;28;20446;-62
2023/12/04 11:04:00;;;;;;;124.37;118.40;;;22.40;43.60;;;;;;5013925;28;20501;-64
2023/12/04 11:06:30;;;;;;;126.80;120.93;;;22.40;43.50;;;;;;5017997;28;20481;-65
2023/12/04 11:08:59;;;;;;;123.13;117.37;;;22.40;43.70;;;;;;5020278;28;20487;-64
2023/12/04 11:11:31;;;;;;;126.10;119.80;;;22.40;43.90;;;;;;5013610;28;20860;-63
2023/12/04 11:14:02;;;;;;;122.60;116.90;;;22.50;43.80;;;;;;5012095;28;20467;-65
2023/12/04 11:16:35;;;;;;;125.03;119.33;;;22.50;44.10;;;;;;5012590;28;20478;-64
2023/12/04 11:19:12;;;;;;;121.27;115.47;;;22.50;44.10;;;;;;5012834;28;20446;-66
2023/12/04 11:21:40;;;;;;;118.77;113.30;;;22.50;44.10;;;;;;5014756;28;20462;-66
2023/12/04 11:24:08;;;;;;;126.03;120.03;;;22.50;44.10;;;;;;5015568;28;20496;-66
2023/12/04 11:26:36;;;;;;;118.27;112.77;;;22.50;44.10;;;;;;5012446;28;20949;-67
2023/12/04 11:29:05;;;;;;;126.77;120.97;;;22.60;44.10;;;;;;5012983;28;20505;-66
2023/12/04 11:31:32;;;;;;;120.73;115.33;;;22.60;44.40;;;;;;5013351;28;20476;-67
2023/12/04 11:34:03;;;;;;;125.00;119.20;;;22.60;44.40;;;;;;5012419;28;20609;-66
2023/12/04 11:36:30;;;;;;;123.23;117.43;;;22.60;44.10;;;;;;5022836;28;20954;-67
2023/12/04 11:38:57;;;;;;;122.40;116.70;;;22.60;44.60;;;;;;5030180;28;20438;-68
2023/12/04 11:41:25;;;;;;;124.30;118.60;;;22.60;44.10;;;;;;5030442;28;20484;-66
2023/12/04 11:43:53;;;;;;;123.40;117.60;;;22.60;44.00;;;;;;5017045;28;20973;-67
2023/12/04 11:46:23;;;;;;;122.87;117.27;;;22.60;44.00;;;;;;5020541;28;20506;-65
2023/12/04 11:48:50;;;;;;;126.57;120.77;;;22.60;44.00;;;;;;5028913;28;20508;-67
2023/12/04 11:51:50;;;;;;;121.97;116.27;;;22.60;44.00;;;;;;5023352;28;20472;-66
2023/12/04 11:54:19;;;;;;;119.57;113.97;;;22.60;44.20;;;;;;5012939;28;20470;-67
2023/12/04 11:56:59;;;;;;;124.23;118.43;;;22.60;44.00;;;;;;5012309;28;20485;-67
2023/12/04 11:59:26;;;;;;;123.50;117.80;;;22.60;44.20;;;;;;5019258;28;20469;-65
2023/12/04 12:01:56;;;;;;;125.80;120.10;;;22.60;43.90;;;;;;5023700;28;20469;-67
2023/12/04 12:04:23;;;;;;;136.50;130.20;;;22.60;44.00;;;;;;5012266;28;20785;-66
2023/12/04 12:06:50;;;;;;;134.23;128.23;;;22.60;44.20;;;;;;5018841;28;20520;-66
2023/12/04 12:09:17;;;;;;;132.67;126.67;;;22.60;44.10;;;;;;5023319;28;20508;-68
2023/12/04 12:11:45;;;;;;;135.00;128.80;;;22.60;44.40;;;;;;5021729;28;20478;-67
2023/12/04 12:14:13;;;;;;;132.40;126.40;;;22.60;44.50;;;;;;5011449;28;20493;-66
2023/12/04 12:16:40;;;;;;;139.83;133.57;;;22.60;44.50;;;;;;5013528;28;20446;-64
2023/12/04 12:19:08;;;;;;;132.27;126.37;;;22.60;44.90;;;;;;5021829;28;20516;-65
2023/12/04 12:21:35;;;;;;;136.93;130.63;;;22.60;44.90;;;;;;5012886;28;20469;-66
2023/12/04 12:24:02;;;;;;;134.30;128.20;;;22.60;44.90;;;;;;5011489;28;20508;-65
2023/12/04 12:26:30;;;;;;;134.93;128.83;;;22.60;44.90;;;;;;5014363;28;20497;-66